Time;durP1;ratioP1;P1;durP2;ratioP2;P2;SDS_P1;SDS_P2;PMS_P1;PMS_P2;Temp;Humidity;BMP_temperature;BMP_pressure;BME280_temperature;BME280_humidity;BME280_pressure;Samples;Min_cycle;Max_cycle;Signal;HPM_P1;HPM_P2
2023/12/23 00:02:08;;;;;;;14.00;1.42;;;;;;;;;;5075888;28;20048;-87
2023/12/23 00:04:34;;;;;;;9.13;1.00;;;;;;;;;;5076732;28;20514;-86
2023/12/23 00:07:00;;;;;;;8.57;1.40;;;;;;;;;;5059857;28;20116;-87
2023/12/23 00:09:26;;;;;;;9.38;1.38;;;;;;;;;;5076862;28;20088;-87
2023/12/23 00:11:53;;;;;;;15.88;1.63;;;;;;;;;;5092933;28;20495;-87
2023/12/23 00:14:19;;;;;;;13.57;1.25;;;;;;;;;;5060331;28;20068;-86
2023/12/23 00:16:45;;;;;;;10.05;1.13;;;;;;;;;;5060046;28;20055;-86
2023/12/23 00:19:11;;;;;;;10.32;0.93;;;;;;;;;;5076062;28;20043;-87
2023/12/23 00:21:37;;;;;;;15.05;1.17;;;;;;;;;;5059442;28;20131;-86
2023/12/23 00:24:06;;;;;;;14.75;0.80;;;;;;;;;;5060659;28;20044;-87
2023/12/23 00:26:32;;;;;;;11.20;0.82;;;;;;;;;;5061777;28;20043;-87
2023/12/23 00:28:58;;;;;;;11.85;1.30;;;;;;;;;;5076408;28;20079;-87
2023/12/23 00:31:24;;;;;;;13.18;1.45;;;;;;;;;;5098005;28;20392;-87
2023/12/23 00:33:50;;;;;;;12.15;1.23;;;;;;;;;;5064963;28;20071;-87
2023/12/23 00:36:16;;;;;;;14.73;1.20;;;;;;;;;;5063321;28;20044;-87
2023/12/23 00:38:42;;;;;;;15.75;1.55;;;;;;;;;;5081137;28;20426;-87
2023/12/23 00:41:08;;;;;;;14.23;1.85;;;;;;;;;;5082093;28;20048;-88
2023/12/23 00:43:35;;;;;;;10.85;1.33;;;;;;;;;;5079795;28;20097;-87
2023/12/23 00:46:01;;;;;;;15.00;1.05;;;;;;;;;;5063628;28;20044;-87
2023/12/23 00:48:27;;;;;;;17.05;1.65;;;;;;;;;;5063084;28;20594;-87
2023/12/23 00:50:53;;;;;;;14.57;1.20;;;;;;;;;;5098167;28;20066;-86
2023/12/23 00:53:19;;;;;;;14.85;1.27;;;;;;;;;;5064161;28;20104;-86
2023/12/23 00:55:45;;;;;;;15.32;1.40;;;;;;;;;;5063665;28;20493;-87
2023/12/23 00:58:11;;;;;;;9.80;1.30;;;;;;;;;;5100144;28;20042;-85
2023/12/23 01:00:38;;;;;;;14.75;1.90;;;;;;;;;;5085478;28;20048;-86
2023/12/23 01:03:04;;;;;;;14.07;1.38;;;;;;;;;;5082511;28;20555;-87
2023/12/23 01:05:30;;;;;;;12.18;1.23;;;;;;;;;;5101530;28;20104;-87
2023/12/23 01:07:56;;;;;;;12.98;1.25;;;;;;;;;;5101722;28;20044;-87
2023/12/23 01:10:25;;;;;;;12.82;1.13;;;;;;;;;;5099077;28;20483;-86
2023/12/23 01:12:51;;;;;;;15.40;0.95;;;;;;;;;;5101693;28;20051;-87
2023/12/23 01:15:17;;;;;;;11.75;1.05;;;;;;;;;;5083909;28;20429;-87
2023/12/23 01:17:43;;;;;;;11.80;1.25;;;;;;;;;;5082825;28;20517;-87
2023/12/23 01:20:10;;;;;;;15.15;1.25;;;;;;;;;;5099584;28;20043;-87
2023/12/23 01:22:36;;;;;;;11.65;0.68;;;;;;;;;;5082132;28;20054;-86
2023/12/23 01:25:02;;;;;;;14.70;1.02;;;;;;;;;;5099262;28;20142;-87
2023/12/23 01:27:28;;;;;;;12.50;1.40;;;;;;;;;;5098972;28;20130;-87
2023/12/23 01:29:55;;;;;;;15.75;1.50;;;;;;;;;;5098982;28;20180;-86
2023/12/23 01:32:21;;;;;;;9.27;0.93;;;;;;;;;;5082014;28;20157;-86
2023/12/23 01:34:47;;;;;;;14.52;1.52;;;;;;;;;;5098892;28;20088;-86
2023/12/23 01:37:13;;;;;;;11.68;1.08;;;;;;;;;;5081738;28;20087;-87
2023/12/23 01:39:40;;;;;;;13.32;1.00;;;;;;;;;;5098829;28;20435;-87
2023/12/23 01:42:06;;;;;;;11.88;1.33;;;;;;;;;;5098653;28;20052;-87
2023/12/23 01:44:32;;;;;;;10.68;1.00;;;;;;;;;;5098669;28;20511;-87
2023/12/23 01:46:59;;;;;;;15.40;0.98;;;;;;;;;;5099406;28;20052;-87
2023/12/23 01:49:26;;;;;;;12.52;0.85;;;;;;;;;;5081999;28;20399;-87
2023/12/23 01:51:52;;;;;;;8.10;0.63;;;;;;;;;;5082259;28;20175;-86
2023/12/23 01:54:19;;;;;;;10.82;0.85;;;;;;;;;;5081482;28;20039;-87
2023/12/23 01:56:47;;;;;;;8.98;0.90;;;;;;;;;;5098382;28;20542;-87
2023/12/23 01:59:13;;;;;;;11.05;1.40;;;;;;;;;;5077700;28;20060;-87
2023/12/23 02:01:40;;;;;;;11.95;0.95;;;;;;;;;;5095261;28;20048;-87
2023/12/23 02:04:06;;;;;;;11.68;0.95;;;;;;;;;;5095871;28;20083;-87
2023/12/23 02:06:34;;;;;;;12.88;0.98;;;;;;;;;;5077821;28;20047;-86
2023/12/23 02:09:02;;;;;;;11.95;0.82;;;;;;;;;;5078151;28;20109;-87
2023/12/23 02:11:43;;;;;;;13.02;1.20;;;;;;;;;;5094752;28;20123;-87
2023/12/23 02:14:13;;;;;;;9.05;0.38;;;;;;;;;;5078178;28;20131;-86
2023/12/23 02:16:39;;;;;;;11.50;0.50;;;;;;;;;;5077874;28;20039;-87
2023/12/23 02:19:08;;;;;;;15.73;1.23;;;;;;;;;;5060974;28;20166;-86
2023/12/23 02:21:34;;;;;;;10.27;0.70;;;;;;;;;;5077601;28;20055;-86
2023/12/23 02:24:00;;;;;;;14.55;1.05;;;;;;;;;;5077895;28;20047;-86
2023/12/23 02:26:27;;;;;;;6.68;0.50;;;;;;;;;;5061400;28;20052;-87
2023/12/23 02:28:54;;;;;;;8.00;0.80;;;;;;;;;;5094252;28;20048;-86
2023/12/23 02:31:21;;;;;;;9.70;0.50;;;;;;;;;;5078359;28;20051;-87
2023/12/23 02:33:48;;;;;;;11.63;0.85;;;;;;;;;;5077396;28;20055;-86
2023/12/23 02:36:14;;;;;;;7.80;0.43;;;;;;;;;;5060728;28;20051;-86
2023/12/23 02:38:40;;;;;;;8.30;0.55;;;;;;;;;;5094165;28;20055;-86
2023/12/23 02:41:06;;;;;;;11.05;0.85;;;;;;;;;;5093932;28;20138;-87
2023/12/23 02:43:32;;;;;;;10.52;0.50;;;;;;;;;;5060617;28;20051;-86
2023/12/23 02:45:58;;;;;;;10.27;0.60;;;;;;;;;;5060731;28;20067;-86
2023/12/23 02:48:24;;;;;;;8.57;0.40;;;;;;;;;;5094111;28;20079;-87
2023/12/23 02:50:50;;;;;;;10.45;0.70;;;;;;;;;;5077339;28;20044;-86
2023/12/23 02:53:16;;;;;;;7.90;0.43;;;;;;;;;;5077308;28;20047;-86
2023/12/23 02:55:42;;;;;;;8.65;0.65;;;;;;;;;;5077840;28;20044;-86
2023/12/23 02:58:09;;;;;;;7.97;0.30;;;;;;;;;;5076935;28;20036;-86
2023/12/23 03:00:35;;;;;;;7.65;0.60;;;;;;;;;;5060349;28;20454;-86
2023/12/23 03:03:02;;;;;;;8.05;0.52;;;;;;;;;;5077186;28;20047;-86
2023/12/23 03:05:28;;;;;;;8.02;0.52;;;;;;;;;;5077222;28;20404;-87
2023/12/23 03:07:54;;;;;;;9.27;0.70;;;;;;;;;;5093604;28;20136;-87
2023/12/23 03:10:20;;;;;;;10.65;0.82;;;;;;;;;;5060112;28;20494;-86
2023/12/23 03:12:46;;;;;;;8.43;0.57;;;;;;;;;;5076894;28;20051;-86
2023/12/23 03:15:12;;;;;;;8.27;0.80;;;;;;;;;;5076652;28;20052;-87
2023/12/23 03:17:38;;;;;;;11.00;0.57;;;;;;;;;;5076367;28;20047;-86
2023/12/23 03:20:04;;;;;;;10.88;0.73;;;;;;;;;;5093419;28;20040;-87
2023/12/23 03:22:31;;;;;;;6.28;0.30;;;;;;;;;;5060069;28;20098;-87
2023/12/23 03:24:57;;;;;;;10.13;0.50;;;;;;;;;;5076496;28;20130;-87
2023/12/23 03:27:23;;;;;;;11.25;0.50;;;;;;;;;;5094182;28;20040;-87
2023/12/23 03:29:49;;;;;;;5.68;0.35;;;;;;;;;;5094047;28;20079;-87
2023/12/23 03:32:15;;;;;;;6.68;0.65;;;;;;;;;;5060164;28;20047;-87
2023/12/23 03:34:41;;;;;;;9.38;0.50;;;;;;;;;;5059722;28;20083;-86
2023/12/23 03:37:07;;;;;;;8.27;0.38;;;;;;;;;;5059743;28;20048;-87
2023/12/23 03:39:33;;;;;;;5.78;0.70;;;;;;;;;;5060282;28;20044;-86
2023/12/23 03:41:59;;;;;;;6.97;0.30;;;;;;;;;;5076332;28;20136;-87
2023/12/23 03:44:25;;;;;;;7.82;0.68;;;;;;;;;;5059800;28;20407;-85
2023/12/23 03:46:52;;;;;;;9.27;0.30;;;;;;;;;;5093277;28;20040;-84
2023/12/23 03:49:18;;;;;;;5.90;0.47;;;;;;;;;;5076044;28;20452;-83
2023/12/23 03:51:44;;;;;;;11.73;0.40;;;;;;;;;;5092980;28;20044;-85
2023/12/23 03:54:10;;;;;;;9.88;0.77;;;;;;;;;;5093151;28;20185;-83
2023/12/23 03:56:36;;;;;;;3.80;0.43;;;;;;;;;;5076249;28;20055;-83
2023/12/23 03:59:02;;;;;;;6.38;0.40;;;;;;;;;;5075657;28;20081;-83
2023/12/23 04:01:28;;;;;;;7.20;0.30;;;;;;;;;;5059511;28;20055;-82
2023/12/23 04:03:54;;;;;;;6.53;0.30;;;;;;;;;;5095071;28;20047;-82
2023/12/23 04:06:20;;;;;;;7.70;0.60;;;;;;;;;;5083600;28;20052;-81
2023/12/23 04:08:47;;;;;;;4.85;0.50;;;;;;;;;;5099585;28;20044;-81
2023/12/23 04:11:13;;;;;;;7.65;0.40;;;;;;;;;;5082723;28;20054;-82
2023/12/23 04:13:39;;;;;;;5.38;0.60;;;;;;;;;;5066003;28;20131;-84
2023/12/23 04:16:05;;;;;;;3.60;0.30;;;;;;;;;;5099207;28;20044;-82
2023/12/23 04:18:31;;;;;;;2.97;0.20;;;;;;;;;;5082793;28;20036;-82
2023/12/23 04:20:58;;;;;;;7.28;0.40;;;;;;;;;;5099402;28;20094;-82
2023/12/23 04:23:24;;;;;;;4.32;0.40;;;;;;;;;;5099737;28;20385;-82
2023/12/23 04:25:50;;;;;;;6.00;0.30;;;;;;;;;;5100195;28;20044;-81
2023/12/23 04:28:20;;;;;;;3.58;0.30;;;;;;;;;;5083293;28;20048;-82
2023/12/23 04:30:47;;;;;;;5.75;0.30;;;;;;;;;;5099344;28;20090;-81
2023/12/23 04:33:13;;;;;;;2.38;0.20;;;;;;;;;;5082412;28;20098;-81
2023/12/23 04:35:39;;;;;;;4.03;0.30;;;;;;;;;;5098998;28;20087;-83
2023/12/23 04:38:06;;;;;;;3.70;0.40;;;;;;;;;;5099158;28;20036;-81
2023/12/23 04:40:32;;;;;;;2.85;0.30;;;;;;;;;;5066033;28;20094;-81
2023/12/23 04:42:58;;;;;;;3.03;0.35;;;;;;;;;;5099255;28;20181;-81
2023/12/23 04:45:24;;;;;;;3.88;0.30;;;;;;;;;;5082712;28;20047;-82
2023/12/23 04:47:50;;;;;;;3.05;0.20;;;;;;;;;;5066607;28;20051;-82
2023/12/23 04:50:17;;;;;;;1.63;0.20;;;;;;;;;;5100012;28;20204;-82
2023/12/23 04:52:43;;;;;;;2.00;0.20;;;;;;;;;;5082141;28;20484;-82
2023/12/23 04:55:09;;;;;;;1.55;0.20;;;;;;;;;;5065711;28;20442;-82
2023/12/23 04:57:35;;;;;;;2.15;0.28;;;;;;;;;;5099000;28;20044;-82
2023/12/23 05:00:05;;;;;;;3.10;0.30;;;;;;;;;;5082784;28;20061;-83
2023/12/23 05:02:33;;;;;;;2.25;0.20;;;;;;;;;;5082631;28;20078;-82
2023/12/23 05:04:59;;;;;;;1.75;0.32;;;;;;;;;;5099064;28;20404;-81
2023/12/23 05:07:25;;;;;;;1.88;0.30;;;;;;;;;;5099059;28;20575;-81
2023/12/23 05:09:51;;;;;;;2.00;0.32;;;;;;;;;;5099782;28;20047;-83
2023/12/23 05:12:17;;;;;;;1.55;0.25;;;;;;;;;;5099245;28;20048;-82
2023/12/23 05:14:43;;;;;;;0.57;0.20;;;;;;;;;;5099239;28;20151;-82
2023/12/23 05:17:09;;;;;;;1.23;0.30;;;;;;;;;;5077848;28;20040;-81
2023/12/23 05:19:40;;;;;;;1.02;0.20;;;;;;;;;;5095377;28;20058;-81
2023/12/23 05:22:06;;;;;;;1.02;0.20;;;;;;;;;;5078763;28;20051;-82
2023/12/23 05:24:32;;;;;;;1.15;0.20;;;;;;;;;;5078479;28;20048;-82
2023/12/23 05:26:58;;;;;;;1.55;0.10;;;;;;;;;;5079027;28;20494;-81
2023/12/23 05:29:24;;;;;;;0.68;0.10;;;;;;;;;;5095449;28;20044;-81
2023/12/23 05:31:50;;;;;;;0.80;0.10;;;;;;;;;;5095521;28;20093;-81
2023/12/23 05:34:16;;;;;;;0.68;0.10;;;;;;;;;;5078611;28;20059;-82
2023/12/23 05:36:42;;;;;;;0.50;0.20;;;;;;;;;;5095476;28;20036;-81
2023/12/23 05:39:10;;;;;;;2.85;0.30;;;;;;;;;;5095939;28;20127;-81
2023/12/23 05:41:36;;;;;;;1.35;0.32;;;;;;;;;;5062261;28;20529;-82
2023/12/23 05:44:02;;;;;;;3.15;0.50;;;;;;;;;;5095518;28;20048;-82
2023/12/23 05:46:28;;;;;;;3.97;0.70;;;;;;;;;;5078769;28;20054;-82
2023/12/23 05:48:54;;;;;;;7.55;1.15;;;;;;;;;;5078375;28;20079;-82
2023/12/23 05:51:20;;;;;;;6.50;1.33;;;;;;;;;;5078254;28;20074;-82
2023/12/23 05:53:46;;;;;;;6.68;1.30;;;;;;;;;;5095083;28;20048;-82
2023/12/23 05:56:12;;;;;;;7.95;1.42;;;;;;;;;;5094987;28;20083;-82
2023/12/23 05:58:38;;;;;;;9.07;1.33;;;;;;;;;;5094745;28;20036;-83
2023/12/23 06:01:06;;;;;;;7.30;1.38;;;;;;;;;;5094720;28;20105;-82
2023/12/23 06:03:32;;;;;;;10.05;1.15;;;;;;;;;;5094917;28;20134;-82
2023/12/23 06:05:58;;;;;;;9.07;1.13;;;;;;;;;;5078770;28;20410;-82
2023/12/23 06:08:24;;;;;;;11.40;1.80;;;;;;;;;;5094828;28;20048;-83
2023/12/23 06:10:50;;;;;;;6.45;1.33;;;;;;;;;;5077953;28;20090;-83
2023/12/23 06:13:16;;;;;;;10.13;1.70;;;;;;;;;;5094646;28;20047;-83
2023/12/23 06:15:42;;;;;;;10.45;1.73;;;;;;;;;;5078563;28;20470;-83
2023/12/23 06:18:09;;;;;;;9.75;2.08;;;;;;;;;;5077676;28;20059;-83
2023/12/23 06:20:35;;;;;;;12.77;2.20;;;;;;;;;;5077791;28;20135;-83
2023/12/23 06:23:01;;;;;;;14.45;2.28;;;;;;;;;;5095340;28;20051;-83
2023/12/23 06:25:27;;;;;;;10.48;2.70;;;;;;;;;;5077455;28;20197;-83
2023/12/23 06:27:53;;;;;;;15.35;2.67;;;;;;;;;;5094033;28;20048;-83
2023/12/23 06:30:19;;;;;;;13.88;2.80;;;;;;;;;;5077541;28;20044;-82
2023/12/23 06:32:45;;;;;;;14.55;2.20;;;;;;;;;;5077472;28;20046;-82
2023/12/23 06:35:11;;;;;;;17.17;2.78;;;;;;;;;;5095082;28;20040;-83
2023/12/23 06:37:37;;;;;;;18.85;2.25;;;;;;;;;;5077327;28;20048;-81
2023/12/23 06:40:03;;;;;;;20.60;3.65;;;;;;;;;;5077013;28;20040;-81
2023/12/23 06:42:29;;;;;;;11.57;2.00;;;;;;;;;;5077384;28;20043;-82
2023/12/23 06:44:55;;;;;;;18.60;2.85;;;;;;;;;;5094048;28;20059;-81
2023/12/23 06:47:21;;;;;;;17.60;2.53;;;;;;;;;;5094046;28;20538;-81
2023/12/23 06:49:47;;;;;;;22.27;3.33;;;;;;;;;;5060605;28;20396;-83
2023/12/23 06:52:13;;;;;;;11.27;2.08;;;;;;;;;;5077108;28;20047;-82
2023/12/23 06:54:40;;;;;;;13.95;2.53;;;;;;;;;;5094654;28;20098;-81
2023/12/23 06:57:06;;;;;;;21.90;2.92;;;;;;;;;;5094022;28;20052;-82
2023/12/23 06:59:32;;;;;;;25.77;3.28;;;;;;;;;;5076628;28;20040;-81
2023/12/23 07:01:58;;;;;;;17.67;2.78;;;;;;;;;;5060186;28;20059;-81
2023/12/23 07:04:24;;;;;;;13.77;2.47;;;;;;;;;;5076662;28;20052;-81
2023/12/23 07:06:50;;;;;;;21.85;2.70;;;;;;;;;;5093914;28;20040;-81
2023/12/23 07:09:16;;;;;;;19.35;2.50;;;;;;;;;;5076446;28;20043;-81
2023/12/23 07:11:43;;;;;;;22.38;3.10;;;;;;;;;;5094358;28;20054;-79
2023/12/23 07:14:09;;;;;;;14.63;2.55;;;;;;;;;;5093546;28;20040;-79
2023/12/23 07:16:35;;;;;;;23.50;3.60;;;;;;;;;;5093521;28;20044;-79
2023/12/23 07:19:01;;;;;;;20.70;2.20;;;;;;;;;;5093211;28;20044;-80
2023/12/23 07:21:27;;;;;;;20.75;2.75;;;;;;;;;;5076852;28;20044;-79
2023/12/23 07:23:53;;;;;;;16.17;2.45;;;;;;;;;;5093363;28;20043;-80
2023/12/23 07:26:19;;;;;;;14.38;2.83;;;;;;;;;;5059675;28;20048;-79
2023/12/23 07:28:45;;;;;;;18.33;2.75;;;;;;;;;;5093089;28;20495;-80
2023/12/23 07:31:12;;;;;;;20.13;2.83;;;;;;;;;;5093584;28;20044;-79
2023/12/23 07:33:38;;;;;;;20.30;3.55;;;;;;;;;;5093265;28;20134;-79
2023/12/23 07:36:04;;;;;;;17.42;2.92;;;;;;;;;;5093473;28;20040;-79
2023/12/23 07:38:30;;;;;;;21.67;3.05;;;;;;;;;;5093290;28;20040;-79
2023/12/23 07:40:56;;;;;;;25.10;3.50;;;;;;;;;;5092905;28;20051;-79
2023/12/23 07:43:22;;;;;;;25.80;3.85;;;;;;;;;;5093051;28;20044;-79
2023/12/23 07:45:48;;;;;;;22.38;3.78;;;;;;;;;;5093045;28;20130;-79
2023/12/23 07:48:14;;;;;;;23.08;3.85;;;;;;;;;;5093036;28;20047;-79
2023/12/23 07:50:40;;;;;;;21.02;2.83;;;;;;;;;;5076230;28;20052;-80
2023/12/23 07:53:06;;;;;;;21.90;3.35;;;;;;;;;;5093039;28;20114;-80
2023/12/23 07:55:34;;;;;;;21.85;3.63;;;;;;;;;;5093668;28;20122;-80
2023/12/23 07:58:00;;;;;;;26.67;3.42;;;;;;;;;;5077059;28;20048;-80
2023/12/23 08:00:27;;;;;;;27.13;3.33;;;;;;;;;;5092782;28;20056;-80
2023/12/23 08:02:53;;;;;;;25.83;3.78;;;;;;;;;;5076028;28;20051;-79
2023/12/23 08:05:19;;;;;;;23.15;3.72;;;;;;;;;;5092806;28;20067;-79
2023/12/23 08:07:45;;;;;;;24.65;3.80;;;;;;;;;;5092806;28;20090;-79
2023/12/23 08:10:11;;;;;;;20.77;3.45;;;;;;;;;;5093647;28;20044;-79
2023/12/23 08:12:37;;;;;;;14.88;2.22;;;;;;;;;;5076819;28;20059;-80
2023/12/23 08:15:04;;;;;;;25.58;3.53;;;;;;;;;;5092454;28;20048;-81
2023/12/23 08:17:30;;;;;;;25.45;3.45;;;;;;;;;;5092653;28;20040;-81
2023/12/23 08:19:56;;;;;;;25.15;3.53;;;;;;;;;;5092475;28;20395;-80
2023/12/23 08:22:22;;;;;;;15.07;2.35;;;;;;;;;;5075896;28;20135;-81
2023/12/23 08:24:48;;;;;;;23.45;2.92;;;;;;;;;;5092810;28;20059;-81
2023/12/23 08:27:15;;;;;;;21.33;2.58;;;;;;;;;;5092663;28;20048;-80
2023/12/23 08:29:41;;;;;;;15.02;2.55;;;;;;;;;;5092524;28;20060;-81
2023/12/23 08:32:07;;;;;;;21.73;2.50;;;;;;;;;;5092326;28;20048;-81
2023/12/23 08:34:33;;;;;;;23.30;2.60;;;;;;;;;;5092127;28;20048;-81
2023/12/23 08:36:59;;;;;;;15.95;2.28;;;;;;;;;;5092478;28;20396;-81
2023/12/23 08:39:25;;;;;;;18.00;2.78;;;;;;;;;;5093029;28;20106;-81
2023/12/23 08:41:51;;;;;;;19.73;3.08;;;;;;;;;;5076514;28;20118;-81
2023/12/23 08:44:21;;;;;;;18.00;2.90;;;;;;;;;;5058756;28;20056;-81
2023/12/23 08:46:47;;;;;;;19.35;3.70;;;;;;;;;;5092130;28;20480;-81
2023/12/23 08:49:13;;;;;;;28.27;3.67;;;;;;;;;;5075249;28;20044;-82
2023/12/23 08:51:39;;;;;;;22.95;2.97;;;;;;;;;;5078568;28;20048;-81
2023/12/23 08:54:05;;;;;;;28.23;3.53;;;;;;;;;;5096983;28;20173;-81
2023/12/23 08:56:31;;;;;;;23.42;2.47;;;;;;;;;;5096902;28;20036;-81
2023/12/23 08:58:57;;;;;;;28.80;4.60;;;;;;;;;;5095873;28;20134;-81
2023/12/23 09:01:23;;;;;;;16.85;2.22;;;;;;;;;;5095483;28;20047;-80
2023/12/23 09:03:49;;;;;;;17.50;2.33;;;;;;;;;;5096293;28;20047;-81
2023/12/23 09:06:17;;;;;;;17.80;2.20;;;;;;;;;;5096182;28;20044;-80
2023/12/23 09:08:43;;;;;;;29.27;4.63;;;;;;;;;;5095880;28;20055;-81
2023/12/23 09:11:09;;;;;;;17.42;3.05;;;;;;;;;;5096170;28;20044;-81
2023/12/23 09:13:36;;;;;;;20.95;2.30;;;;;;;;;;5096139;28;20048;-82
2023/12/23 09:16:03;;;;;;;24.10;3.40;;;;;;;;;;5078571;28;20078;-83
2023/12/23 09:18:29;;;;;;;26.42;3.55;;;;;;;;;;5095538;28;20040;-82
2023/12/23 09:20:55;;;;;;;28.70;4.03;;;;;;;;;;5062563;28;20395;-82
2023/12/23 09:23:21;;;;;;;19.30;3.05;;;;;;;;;;5078790;28;20117;-82
2023/12/23 09:25:47;;;;;;;23.02;2.72;;;;;;;;;;5078810;28;20056;-82
2023/12/23 09:28:14;;;;;;;23.15;3.08;;;;;;;;;;5079510;28;20052;-82
2023/12/23 09:30:40;;;;;;;24.88;2.83;;;;;;;;;;5078677;28;20139;-82
2023/12/23 09:33:06;;;;;;;24.42;3.90;;;;;;;;;;5095512;28;20059;-83
2023/12/23 09:35:32;;;;;;;21.30;3.15;;;;;;;;;;5078647;28;20395;-83
2023/12/23 09:37:58;;;;;;;19.20;2.08;;;;;;;;;;5095553;28;20081;-84
2023/12/23 09:40:24;;;;;;;15.90;2.63;;;;;;;;;;5062188;28;20052;-83
2023/12/23 09:42:51;;;;;;;26.65;3.65;;;;;;;;;;5078457;28;20048;-83
2023/12/23 09:45:19;;;;;;;23.08;2.60;;;;;;;;;;5095203;28;20083;-84
2023/12/23 09:47:45;;;;;;;25.88;3.20;;;;;;;;;;5078279;28;20047;-84
2023/12/23 09:50:12;;;;;;;23.63;3.20;;;;;;;;;;5078343;28;20040;-84
2023/12/23 09:52:38;;;;;;;26.05;3.13;;;;;;;;;;5061719;28;20048;-84
2023/12/23 09:55:04;;;;;;;16.58;3.20;;;;;;;;;;5078928;28;20066;-83
2023/12/23 09:57:34;;;;;;;23.58;2.97;;;;;;;;;;5078158;28;20086;-83
2023/12/23 10:00:00;;;;;;;23.23;2.60;;;;;;;;;;5080323;28;20526;-83
2023/12/23 10:02:26;;;;;;;30.02;2.90;;;;;;;;;;5081620;28;20063;-83
2023/12/23 10:04:52;;;;;;;25.33;2.83;;;;;;;;;;5082201;28;20058;-83
2023/12/23 10:07:18;;;;;;;23.45;3.42;;;;;;;;;;5097910;28;20480;-83
2023/12/23 10:09:44;;;;;;;23.80;3.45;;;;;;;;;;5098176;28;20043;-83
2023/12/23 10:12:10;;;;;;;18.17;2.55;;;;;;;;;;5081925;28;20134;-84
2023/12/23 10:14:41;;;;;;;18.73;2.55;;;;;;;;;;5098040;28;20051;-84
2023/12/23 10:17:07;;;;;;;27.80;3.58;;;;;;;;;;5081831;28;20047;-85
2023/12/23 10:19:33;;;;;;;24.15;2.80;;;;;;;;;;5081609;28;20039;-84
2023/12/23 10:22:00;;;;;;;18.38;1.88;;;;;;;;;;5097846;28;20472;-83
2023/12/23 10:24:26;;;;;;;24.20;2.90;;;;;;;;;;5097737;28;20047;-85
2023/12/23 10:26:52;;;;;;;18.63;2.33;;;;;;;;;;5080959;28;20047;-85
2023/12/23 10:29:19;;;;;;;21.63;2.10;;;;;;;;;;5097781;28;20043;-84
2023/12/23 10:31:50;;;;;;;25.85;2.92;;;;;;;;;;5098419;28;20040;-82
2023/12/23 10:34:19;;;;;;;14.55;2.13;;;;;;;;;;5081021;28;20052;-82
2023/12/23 10:36:45;;;;;;;16.85;1.77;;;;;;;;;;5081596;28;20602;-82
2023/12/23 10:39:26;;;;;;;18.30;2.70;;;;;;;;;;5098172;28;20039;-83
2023/12/23 10:41:56;;;;;;;14.55;1.80;;;;;;;;;;5098352;28;20047;-83
2023/12/23 10:44:22;;;;;;;19.75;2.55;;;;;;;;;;5097244;28;20051;-82
2023/12/23 10:46:50;;;;;;;22.98;2.47;;;;;;;;;;5080584;28;20130;-82
2023/12/23 10:49:17;;;;;;;23.00;2.33;;;;;;;;;;5080588;28;20055;-82
2023/12/23 10:51:44;;;;;;;17.73;2.40;;;;;;;;;;5081193;28;20092;-83
2023/12/23 10:54:11;;;;;;;19.75;1.88;;;;;;;;;;5080748;28;20039;-83
2023/12/23 10:56:37;;;;;;;18.73;1.90;;;;;;;;;;5080608;28;20051;-84
2023/12/23 10:59:04;;;;;;;22.63;2.05;;;;;;;;;;5080039;28;20035;-84
2023/12/23 11:01:32;;;;;;;19.35;2.33;;;;;;;;;;5080763;28;20055;-83
2023/12/23 11:04:02;;;;;;;19.23;2.13;;;;;;;;;;5080535;28;20365;-84
2023/12/23 11:06:34;;;;;;;21.30;2.72;;;;;;;;;;5080246;28;20120;-84
2023/12/23 11:09:01;;;;;;;16.70;2.25;;;;;;;;;;5096697;28;20047;-84
2023/12/23 11:11:29;;;;;;;22.50;2.17;;;;;;;;;;5097807;28;20047;-84
2023/12/23 11:13:55;;;;;;;18.52;2.00;;;;;;;;;;5095983;28;20482;-84
2023/12/23 11:16:21;;;;;;;19.75;2.30;;;;;;;;;;5080417;28;20433;-84
2023/12/23 11:18:51;;;;;;;16.63;2.00;;;;;;;;;;5079967;28;20095;-83
2023/12/23 11:21:17;;;;;;;13.93;2.00;;;;;;;;;;5080862;28;20093;-84
2023/12/23 11:23:43;;;;;;;14.50;2.15;;;;;;;;;;5080066;28;20066;-84
2023/12/23 11:26:28;;;;;;;12.20;1.92;;;;;;;;;;5096778;28;20047;-84
2023/12/23 11:28:54;;;;;;;17.33;1.58;;;;;;;;;;5079888;28;20052;-84
2023/12/23 11:31:20;;;;;;;14.73;1.70;;;;;;;;;;5079972;28;20052;-83
2023/12/23 11:33:47;;;;;;;22.00;2.30;;;;;;;;;;5079821;28;20036;-84
2023/12/23 11:36:13;;;;;;;17.75;2.83;;;;;;;;;;5080875;28;20044;-84
2023/12/23 11:38:47;;;;;;;22.35;2.75;;;;;;;;;;5096457;28;20044;-83
2023/12/23 11:41:13;;;;;;;18.80;2.60;;;;;;;;;;5080048;28;20434;-83
2023/12/23 11:43:46;;;;;;;19.33;1.77;;;;;;;;;;5079832;28;20047;-83
2023/12/23 11:46:13;;;;;;;18.88;2.58;;;;;;;;;;5096669;28;20047;-83
2023/12/23 11:48:39;;;;;;;20.80;2.60;;;;;;;;;;5096416;28;20044;-83
2023/12/23 11:51:08;;;;;;;20.88;2.25;;;;;;;;;;5080368;28;20100;-83
2023/12/23 11:53:34;;;;;;;18.05;2.20;;;;;;;;;;5096638;28;20093;-83
2023/12/23 11:56:00;;;;;;;14.20;1.73;;;;;;;;;;5079682;28;20051;-83
2023/12/23 11:58:27;;;;;;;17.13;1.80;;;;;;;;;;5096272;28;20085;-84
2023/12/23 12:00:54;;;;;;;19.10;2.72;;;;;;;;;;5079560;28;20134;-82
2023/12/23 12:03:20;;;;;;;18.20;2.20;;;;;;;;;;5080278;28;20052;-83
2023/12/23 12:05:46;;;;;;;22.13;2.75;;;;;;;;;;5096232;28;20055;-83
2023/12/23 12:08:12;;;;;;;18.08;2.35;;;;;;;;;;5096534;28;20131;-83
2023/12/23 12:10:38;;;;;;;18.90;2.17;;;;;;;;;;5079356;28;20117;-84
2023/12/23 12:13:05;;;;;;;18.42;2.45;;;;;;;;;;5080329;28;20135;-83
2023/12/23 12:15:31;;;;;;;17.00;1.77;;;;;;;;;;5079568;28;20369;-84
2023/12/23 12:17:57;;;;;;;18.45;2.38;;;;;;;;;;5080137;28;20100;-83
2023/12/23 12:20:23;;;;;;;19.92;2.78;;;;;;;;;;5079967;28;20061;-83
2023/12/23 12:22:49;;;;;;;17.27;2.22;;;;;;;;;;5079286;28;20044;-83
2023/12/23 12:25:16;;;;;;;19.35;1.90;;;;;;;;;;5080464;28;20044;-83
2023/12/23 12:27:42;;;;;;;21.40;2.75;;;;;;;;;;5084160;28;20387;-83
2023/12/23 12:30:09;;;;;;;13.02;1.63;;;;;;;;;;5083227;28;20046;-83
2023/12/23 12:32:35;;;;;;;21.83;2.47;;;;;;;;;;5100964;28;20083;-83
2023/12/23 12:35:02;;;;;;;15.27;1.85;;;;;;;;;;5100307;28;20433;-83
2023/12/23 12:37:28;;;;;;;12.73;1.65;;;;;;;;;;5083815;28;20055;-82
2023/12/23 12:39:55;;;;;;;18.85;2.53;;;;;;;;;;5099444;28;20131;-83
2023/12/23 12:42:21;;;;;;;17.30;2.80;;;;;;;;;;5099660;28;20052;-82
2023/12/23 12:44:48;;;;;;;19.08;2.33;;;;;;;;;;5083020;28;20050;-83
2023/12/23 12:47:14;;;;;;;14.48;1.58;;;;;;;;;;5099872;28;20043;-83
2023/12/23 12:49:46;;;;;;;16.27;2.25;;;;;;;;;;5099799;28;20043;-83
2023/12/23 12:52:13;;;;;;;17.73;2.22;;;;;;;;;;5100485;28;20047;-84
2023/12/23 12:54:39;;;;;;;18.02;2.28;;;;;;;;;;5082861;28;20044;-83
2023/12/23 12:57:05;;;;;;;17.52;1.85;;;;;;;;;;5099524;28;20120;-82
2023/12/23 12:59:31;;;;;;;17.88;2.38;;;;;;;;;;5099566;28;20040;-83
2023/12/23 13:01:57;;;;;;;16.75;2.03;;;;;;;;;;5078954;28;20052;-83
2023/12/23 13:04:24;;;;;;;14.20;2.00;;;;;;;;;;5080127;28;20234;-82
2023/12/23 13:06:50;;;;;;;12.57;1.77;;;;;;;;;;5063522;28;20059;-83
2023/12/23 13:09:17;;;;;;;11.07;1.67;;;;;;;;;;5079358;28;20055;-83
2023/12/23 13:11:43;;;;;;;22.40;2.10;;;;;;;;;;5095645;28;20503;-83
2023/12/23 13:14:09;;;;;;;17.55;2.38;;;;;;;;;;5062640;28;20131;-83
2023/12/23 13:16:35;;;;;;;15.20;2.58;;;;;;;;;;5079073;28;20047;-83
2023/12/23 13:19:01;;;;;;;16.58;1.73;;;;;;;;;;5078862;28;20044;-83
2023/12/23 13:21:28;;;;;;;13.75;1.27;;;;;;;;;;5062333;28;20409;-83
2023/12/23 13:23:54;;;;;;;14.00;1.23;;;;;;;;;;5078849;28;20044;-83
2023/12/23 13:26:20;;;;;;;13.60;1.65;;;;;;;;;;5078771;28;20047;-83
2023/12/23 13:28:46;;;;;;;11.65;1.40;;;;;;;;;;5095653;28;20048;-83
2023/12/23 13:31:12;;;;;;;15.75;1.48;;;;;;;;;;5078745;28;20055;-83
2023/12/23 13:33:39;;;;;;;11.68;1.65;;;;;;;;;;5062129;28;20048;-83
2023/12/23 13:36:07;;;;;;;14.20;1.90;;;;;;;;;;5062267;28;20481;-83
2023/12/23 13:38:33;;;;;;;10.18;1.35;;;;;;;;;;5077924;28;20076;-83
2023/12/23 13:40:59;;;;;;;11.48;1.50;;;;;;;;;;5062013;28;20399;-83
2023/12/23 13:43:25;;;;;;;17.75;2.38;;;;;;;;;;5062282;28;20044;-84
2023/12/23 13:45:51;;;;;;;11.95;1.48;;;;;;;;;;5078531;28;20135;-84
2023/12/23 13:48:17;;;;;;;15.10;1.83;;;;;;;;;;5078572;28;20453;-83
2023/12/23 13:50:43;;;;;;;15.85;1.67;;;;;;;;;;5095236;28;20047;-83
2023/12/23 13:53:10;;;;;;;12.30;1.42;;;;;;;;;;5078682;28;20388;-83
2023/12/23 13:55:36;;;;;;;14.10;1.88;;;;;;;;;;5095388;28;20059;-84
2023/12/23 13:58:09;;;;;;;13.55;1.70;;;;;;;;;;5061969;28;20044;-84
2023/12/23 14:00:36;;;;;;;10.48;1.85;;;;;;;;;;5082118;28;20055;-84
2023/12/23 14:03:02;;;;;;;16.42;1.67;;;;;;;;;;5098763;28;20094;-83
2023/12/23 14:05:28;;;;;;;15.98;1.60;;;;;;;;;;5081746;28;20039;-83
2023/12/23 14:07:54;;;;;;;16.98;2.05;;;;;;;;;;5098167;28;20044;-83
2023/12/23 14:10:20;;;;;;;13.90;1.27;;;;;;;;;;5098220;28;20058;-83
2023/12/23 14:12:46;;;;;;;14.65;1.52;;;;;;;;;;5098368;28;20494;-82
2023/12/23 14:15:13;;;;;;;14.73;1.67;;;;;;;;;;5098892;28;20378;-84
2023/12/23 14:17:39;;;;;;;13.95;1.40;;;;;;;;;;5097996;28;20437;-83
2023/12/23 14:20:05;;;;;;;9.43;1.38;;;;;;;;;;5081191;28;20062;-83
2023/12/23 14:22:31;;;;;;;15.73;2.30;;;;;;;;;;5081039;28;20078;-83
2023/12/23 14:24:57;;;;;;;12.52;1.45;;;;;;;;;;5081836;28;20044;-83
2023/12/23 14:27:23;;;;;;;12.23;1.55;;;;;;;;;;5080627;28;20044;-83
2023/12/23 14:29:49;;;;;;;12.23;1.25;;;;;;;;;;5080842;28;20130;-83